Time;durP1;ratioP1;P1;durP2;ratioP2;P2;SDS_P1;SDS_P2;PMS_P1;PMS_P2;Temp;Humidity;BMP_temperature;BMP_pressure;BME280_temperature;BME280_humidity;BME280_pressure;Samples;Min_cycle;Max_cycle;Signal;HPM_P1;HPM_P2
2023/12/14 00:01:22;;;;;;;12.00;7.35;;;4.40;99.90;;;;;;4960925;28;20046;-58
2023/12/14 00:03:48;;;;;;;13.05;7.57;;;4.40;99.90;;;;;;4983420;28;20045;-58
2023/12/14 00:06:14;;;;;;;11.77;6.80;;;4.30;99.90;;;;;;4983897;28;20093;-57
2023/12/14 00:08:40;;;;;;;13.25;6.47;;;4.30;99.90;;;;;;4965779;28;20666;-55
2023/12/14 00:11:11;;;;;;;11.23;6.95;;;4.30;99.90;;;;;;4981587;28;20042;-56
2023/12/14 00:13:37;;;;;;;11.00;7.15;;;4.30;99.90;;;;;;4981595;28;20625;-57
2023/12/14 00:16:04;;;;;;;8.65;6.07;;;4.30;99.90;;;;;;4980534;28;20026;-57
2023/12/14 00:18:30;;;;;;;9.85;6.07;;;4.40;99.90;;;;;;4976961;28;20154;-57
2023/12/14 00:20:56;;;;;;;9.98;6.13;;;4.30;99.90;;;;;;4981158;28;20507;-57
2023/12/14 00:23:25;;;;;;;10.25;6.47;;;4.40;99.90;;;;;;4962170;28;20038;-57
2023/12/14 00:25:51;;;;;;;11.32;6.45;;;4.30;99.90;;;;;;4989476;28;20037;-56
2023/12/14 00:28:17;;;;;;;11.60;6.50;;;4.30;99.90;;;;;;4987726;28;20514;-56
2023/12/14 00:30:42;;;;;;;12.88;6.75;;;4.30;99.90;;;;;;4986156;28;20411;-58
2023/12/14 00:33:08;;;;;;;12.45;7.00;;;4.30;99.90;;;;;;4987097;28;20057;-56
2023/12/14 00:35:34;;;;;;;13.32;7.53;;;4.30;99.90;;;;;;4988650;28;22165;-56
2023/12/14 00:38:00;;;;;;;12.23;7.25;;;4.30;99.90;;;;;;4985113;28;20056;-58
2023/12/14 00:40:25;;;;;;;13.70;7.07;;;4.20;99.90;;;;;;4975419;28;20042;-57
2023/12/14 00:42:51;;;;;;;10.05;6.70;;;4.30;99.90;;;;;;4984183;28;20161;-57
2023/12/14 00:45:17;;;;;;;10.57;6.32;;;4.30;99.90;;;;;;4987805;28;20068;-56
2023/12/14 00:47:43;;;;;;;8.13;5.57;;;4.30;99.90;;;;;;4986258;28;20053;-56
2023/12/14 00:50:08;;;;;;;10.07;5.53;;;4.30;99.90;;;;;;4970508;28;20557;-58
2023/12/14 00:52:34;;;;;;;8.35;5.55;;;4.30;99.90;;;;;;4988257;28;20513;-57
2023/12/14 00:55:00;;;;;;;14.70;6.00;;;4.30;99.90;;;;;;4984636;28;20103;-55
2023/12/14 00:57:26;;;;;;;10.35;6.40;;;4.30;99.90;;;;;;4984020;28;20553;-57
2023/12/14 00:59:51;;;;;;;10.32;6.35;;;4.30;99.90;;;;;;4971964;28;20182;-54
2023/12/14 01:02:17;;;;;;;11.68;6.70;;;4.30;99.90;;;;;;4986551;28;20047;-58
2023/12/14 01:04:43;;;;;;;14.88;7.57;;;4.30;99.90;;;;;;4983836;28;20384;-57
2023/12/14 01:07:09;;;;;;;13.77;7.22;;;4.30;99.90;;;;;;4970584;28;20132;-56
2023/12/14 01:09:35;;;;;;;14.57;8.20;;;4.30;99.90;;;;;;4984995;28;20537;-57
2023/12/14 01:12:00;;;;;;;12.25;7.03;;;4.30;99.90;;;;;;4985008;28;20054;-57
2023/12/14 01:14:26;;;;;;;13.80;7.75;;;4.30;99.90;;;;;;4970354;28;20045;-56
2023/12/14 01:16:52;;;;;;;19.25;8.88;;;4.20;99.90;;;;;;4974387;28;20058;-57
2023/12/14 01:19:18;;;;;;;14.75;8.18;;;4.30;99.90;;;;;;4953805;28;20337;-57
2023/12/14 01:21:44;;;;;;;13.77;7.93;;;4.30;99.90;;;;;;4969205;28;20116;-55
2023/12/14 01:24:10;;;;;;;19.33;8.75;;;4.30;99.90;;;;;;4985338;28;20443;-58
2023/12/14 01:26:36;;;;;;;16.83;8.80;;;4.30;99.90;;;;;;4982341;28;20451;-57
2023/12/14 01:29:02;;;;;;;17.08;9.10;;;4.40;99.90;;;;;;4984526;28;20684;-58
2023/12/14 01:31:27;;;;;;;18.15;8.73;;;4.30;99.90;;;;;;4966089;28;20100;-57
2023/12/14 01:33:53;;;;;;;18.15;8.80;;;4.30;99.90;;;;;;4981136;28;20486;-56
2023/12/14 01:36:26;;;;;;;15.65;7.95;;;4.30;99.90;;;;;;4983538;28;20413;-58
2023/12/14 01:38:52;;;;;;;18.48;9.05;;;4.30;99.90;;;;;;4987109;28;20046;-56
2023/12/14 01:41:18;;;;;;;17.75;9.65;;;4.30;99.90;;;;;;4976086;28;20522;-54
2023/12/14 01:43:44;;;;;;;17.42;9.43;;;4.30;99.90;;;;;;4982985;28;20113;-57
2023/12/14 01:46:11;;;;;;;17.25;8.65;;;4.30;99.90;;;;;;4965283;28;20081;-58
2023/12/14 01:48:36;;;;;;;16.83;8.63;;;4.30;99.90;;;;;;4982816;28;20058;-58
2023/12/14 01:51:03;;;;;;;14.82;9.15;;;4.30;99.90;;;;;;4984280;28;20105;-56
2023/12/14 01:53:28;;;;;;;18.75;9.48;;;4.30;99.90;;;;;;4987543;28;20037;-56
2023/12/14 01:55:54;;;;;;;17.88;8.88;;;4.30;99.90;;;;;;4986998;28;20128;-56
2023/12/14 01:58:20;;;;;;;18.65;8.73;;;4.30;99.90;;;;;;4986298;28;20710;-57
2023/12/14 02:01:00;;;;;;;19.08;8.45;;;4.30;99.90;;;;;;4970123;28;20045;-57
2023/12/14 02:03:26;;;;;;;17.30;8.50;;;4.30;99.90;;;;;;5250436;23;20074;-57
2023/12/14 02:05:52;;;;;;;15.68;8.05;;;4.30;99.90;;;;;;5018548;28;20049;-56
2023/12/14 02:08:17;;;;;;;20.15;8.98;;;4.30;99.90;;;;;;5021135;28;20064;-56
2023/12/14 02:10:43;;;;;;;18.35;8.10;;;4.30;99.90;;;;;;5011286;28;20120;-57
2023/12/14 02:13:09;;;;;;;15.80;8.40;;;4.30;99.90;;;;;;5018100;28;20489;-56
2023/12/14 02:15:34;;;;;;;18.63;8.18;;;4.30;99.90;;;;;;4997072;28;20096;-57
2023/12/14 02:18:00;;;;;;;22.08;8.95;;;4.30;99.90;;;;;;5012472;28;20046;-56
2023/12/14 02:20:26;;;;;;;14.43;8.13;;;4.30;99.90;;;;;;4991698;28;20076;-55
2023/12/14 02:22:56;;;;;;;14.95;8.00;;;4.40;99.90;;;;;;5006142;28;20056;-55
2023/12/14 02:25:23;;;;;;;15.48;8.18;;;4.30;99.90;;;;;;5002916;28;20283;-57
2023/12/14 02:27:51;;;;;;;14.38;8.35;;;4.30;99.90;;;;;;4998076;28;20481;-56
2023/12/14 02:30:18;;;;;;;19.90;8.30;;;4.30;99.90;;;;;;4992723;28;20081;-54
2023/12/14 02:32:44;;;;;;;16.55;8.18;;;4.30;99.90;;;;;;5008561;28;20556;-56
2023/12/14 02:35:10;;;;;;;13.60;7.97;;;4.30;99.90;;;;;;5005536;28;20037;-56
2023/12/14 02:37:37;;;;;;;16.75;8.32;;;4.20;99.90;;;;;;4998424;28;20046;-56
2023/12/14 02:40:04;;;;;;;15.65;7.63;;;4.30;99.90;;;;;;4997998;28;20044;-56
2023/12/14 02:42:30;;;;;;;15.45;7.40;;;4.30;99.90;;;;;;5024493;28;20044;-56
2023/12/14 02:44:56;;;;;;;16.90;8.00;;;4.30;99.90;;;;;;5002920;28;20049;-57
2023/12/14 02:47:23;;;;;;;18.42;7.78;;;4.30;99.90;;;;;;5023937;28;20045;-57
2023/12/14 02:49:48;;;;;;;18.00;8.75;;;4.30;99.90;;;;;;5025952;28;20075;-56
2023/12/14 02:52:14;;;;;;;16.10;7.65;;;4.30;99.90;;;;;;5026635;28;20119;-57
2023/12/14 02:54:40;;;;;;;14.55;7.20;;;4.30;99.90;;;;;;5037960;28;20709;-57
2023/12/14 02:57:06;;;;;;;14.85;7.47;;;4.30;99.90;;;;;;5043028;28;20546;-57
2023/12/14 02:59:32;;;;;;;15.10;7.60;;;4.30;99.90;;;;;;5035736;28;20045;-56
2023/12/14 03:01:57;;;;;;;15.85;8.55;;;4.30;99.90;;;;;;5038743;28;20056;-56
2023/12/14 03:04:23;;;;;;;17.23;8.63;;;4.30;99.90;;;;;;5009382;28;20139;-55
2023/12/14 03:06:49;;;;;;;13.95;8.43;;;4.30;99.90;;;;;;5021241;28;20049;-57
2023/12/14 03:09:15;;;;;;;17.70;8.57;;;4.30;99.90;;;;;;5035774;28;20045;-56
2023/12/14 03:11:40;;;;;;;17.95;8.38;;;4.30;99.90;;;;;;5021799;28;20595;-56
2023/12/14 03:14:06;;;;;;;17.25;8.40;;;4.30;99.90;;;;;;5034031;28;20160;-56
2023/12/14 03:16:32;;;;;;;16.15;8.57;;;4.30;99.90;;;;;;5036495;28;20377;-56
2023/12/14 03:18:58;;;;;;;17.42;9.13;;;4.30;99.90;;;;;;5032223;28;20126;-57
2023/12/14 03:21:24;;;;;;;19.65;9.30;;;4.40;99.90;;;;;;5009207;28;20067;-57
2023/12/14 03:23:50;;;;;;;18.08;8.70;;;4.30;99.90;;;;;;5030310;28;20049;-55
2023/12/14 03:26:16;;;;;;;14.27;8.52;;;4.30;99.90;;;;;;5033270;28;20045;-56
2023/12/14 03:28:41;;;;;;;20.30;9.05;;;4.30;99.90;;;;;;5029090;28;20056;-57
2023/12/14 03:31:12;;;;;;;23.55;10.02;;;4.30;99.90;;;;;;5024949;28;20045;-56
2023/12/14 03:33:39;;;;;;;19.13;9.43;;;4.30;99.90;;;;;;5026789;28;20531;-57
2023/12/14 03:36:05;;;;;;;18.98;10.15;;;4.30;99.90;;;;;;5023581;28;20041;-57
2023/12/14 03:38:31;;;;;;;21.20;9.65;;;4.30;99.90;;;;;;5023989;28;21578;-56
2023/12/14 03:40:57;;;;;;;20.20;10.20;;;4.30;99.90;;;;;;5019670;28;20049;-56
2023/12/14 03:43:23;;;;;;;21.70;10.00;;;4.30;99.90;;;;;;5004714;28;20598;-57
2023/12/14 03:45:50;;;;;;;19.27;9.48;;;4.30;99.90;;;;;;5023933;28;20057;-56
2023/12/14 03:48:15;;;;;;;20.15;9.70;;;4.40;99.90;;;;;;5022533;28;20080;-55
2023/12/14 03:50:41;;;;;;;20.70;9.57;;;4.40;99.90;;;;;;5022812;28;20500;-56
2023/12/14 03:53:07;;;;;;;20.33;10.35;;;4.40;99.90;;;;;;5022093;28;20087;-56
2023/12/14 03:55:33;;;;;;;19.92;9.95;;;4.30;99.90;;;;;;5022840;28;20475;-56
2023/12/14 03:57:59;;;;;;;19.13;9.63;;;4.30;99.90;;;;;;5020012;28;20065;-56
2023/12/14 04:00:25;;;;;;;20.50;9.82;;;4.30;99.90;;;;;;5001826;28;20346;-56
2023/12/14 04:02:50;;;;;;;17.08;9.57;;;4.30;99.90;;;;;;5038692;28;20415;-55
2023/12/14 04:05:17;;;;;;;22.67;9.85;;;4.30;99.90;;;;;;5040441;28;20849;-57
2023/12/14 04:07:42;;;;;;;19.75;10.32;;;4.30;99.90;;;;;;5037586;28;20049;-56
2023/12/14 04:10:12;;;;;;;20.10;10.10;;;4.30;99.90;;;;;;5037936;28;20048;-56
2023/12/14 04:12:38;;;;;;;16.83;9.82;;;4.30;99.90;;;;;;5028384;28;20045;-55
2023/12/14 04:15:05;;;;;;;20.38;10.88;;;4.30;99.90;;;;;;5034680;28;20127;-56
2023/12/14 04:17:31;;;;;;;23.35;10.80;;;4.30;99.90;;;;;;5032562;28;20570;-56
2023/12/14 04:19:57;;;;;;;26.20;9.93;;;4.20;99.90;;;;;;5035345;28;20168;-54
2023/12/14 04:22:23;;;;;;;19.13;9.93;;;4.30;99.90;;;;;;5035325;28;20055;-56
2023/12/14 04:24:50;;;;;;;26.80;10.70;;;4.30;99.90;;;;;;5033756;28;20407;-57
2023/12/14 04:27:16;;;;;;;25.65;10.48;;;4.20;99.90;;;;;;5013766;28;20145;-56
2023/12/14 04:29:42;;;;;;;17.15;9.90;;;4.30;99.90;;;;;;5025429;28;20041;-57
2023/12/14 04:32:08;;;;;;;20.90;10.30;;;4.30;99.90;;;;;;5014248;28;20051;-57
2023/12/14 04:34:33;;;;;;;19.25;9.60;;;4.30;99.90;;;;;;5027545;28;20242;-57
2023/12/14 04:36:59;;;;;;;17.65;10.27;;;4.30;99.90;;;;;;5014477;28;20041;-56
2023/12/14 04:39:25;;;;;;;18.38;9.85;;;4.30;99.90;;;;;;5024682;28;20033;-56
2023/12/14 04:41:52;;;;;;;17.13;10.20;;;4.20;99.90;;;;;;5023576;28;20397;-57
2023/12/14 04:44:21;;;;;;;21.55;9.90;;;4.30;99.90;;;;;;5018327;28;20105;-56
2023/12/14 04:46:50;;;;;;;21.23;10.15;;;4.30;99.90;;;;;;5018802;28;20156;-57
2023/12/14 04:49:16;;;;;;;20.95;9.73;;;4.30;99.90;;;;;;5000477;28;20050;-56
2023/12/14 04:51:42;;;;;;;15.75;9.30;;;4.30;99.90;;;;;;5021827;28;20122;-57
2023/12/14 04:54:08;;;;;;;16.52;9.73;;;4.30;99.90;;;;;;5024104;28;20550;-56
2023/12/14 04:56:34;;;;;;;18.88;9.63;;;4.30;99.90;;;;;;5022826;28;20541;-57
2023/12/14 04:59:00;;;;;;;19.80;10.38;;;4.30;99.90;;;;;;5019847;28;20148;-57
2023/12/14 05:01:29;;;;;;;19.20;10.00;;;4.20;99.90;;;;;;5017443;28;20600;-55
2023/12/14 05:03:55;;;;;;;18.63;9.65;;;4.30;99.90;;;;;;5008946;28;20125;-56
2023/12/14 05:06:21;;;;;;;17.98;10.80;;;4.20;99.90;;;;;;5027604;28;20044;-57
2023/12/14 05:08:47;;;;;;;20.80;10.35;;;4.30;99.90;;;;;;5037626;28;20582;-57
2023/12/14 05:11:13;;;;;;;21.17;11.02;;;4.30;99.90;;;;;;5035626;28;20053;-57
2023/12/14 05:13:40;;;;;;;21.00;11.32;;;4.30;99.90;;;;;;5032828;28;20139;-56
2023/12/14 05:16:06;;;;;;;22.48;10.93;;;4.30;99.90;;;;;;5034748;28;20048;-57
2023/12/14 05:18:32;;;;;;;18.48;10.57;;;4.30;99.90;;;;;;5033321;28;20319;-57
2023/12/14 05:20:59;;;;;;;20.50;10.82;;;4.30;99.90;;;;;;5015709;28;20519;-56
2023/12/14 05:23:24;;;;;;;22.95;10.60;;;4.30;99.90;;;;;;5026908;28;20091;-55
2023/12/14 05:25:50;;;;;;;23.02;10.63;;;4.30;99.90;;;;;;5032431;28;20053;-55
2023/12/14 05:28:16;;;;;;;21.65;10.88;;;4.30;99.90;;;;;;5031833;28;20052;-56
2023/12/14 05:30:42;;;;;;;17.50;10.50;;;4.30;99.90;;;;;;5024692;28;20055;-56
2023/12/14 05:33:07;;;;;;;26.00;11.02;;;4.30;99.90;;;;;;5026754;28;20037;-56
2023/12/14 05:35:33;;;;;;;21.65;10.50;;;4.30;99.90;;;;;;5008874;28;20577;-56
2023/12/14 05:37:59;;;;;;;24.63;10.73;;;4.30;99.90;;;;;;5019828;28;20808;-57
2023/12/14 05:40:25;;;;;;;24.75;11.35;;;4.30;99.90;;;;;;5028378;28;20049;-57
2023/12/14 05:42:50;;;;;;;20.15;11.40;;;4.30;99.90;;;;;;5027327;28;20468;-56
2023/12/14 05:45:18;;;;;;;23.85;10.85;;;4.30;99.90;;;;;;5024764;28;20048;-56
2023/12/14 05:47:44;;;;;;;28.77;11.73;;;4.30;99.90;;;;;;5014723;28;20134;-57
2023/12/14 05:50:10;;;;;;;23.33;10.63;;;4.30;99.90;;;;;;5022983;28;20057;-56
2023/12/14 05:52:37;;;;;;;23.13;12.07;;;4.30;99.90;;;;;;5019539;28;20615;-57
2023/12/14 05:55:04;;;;;;;20.05;11.52;;;4.20;99.90;;;;;;5020629;28;20062;-56
2023/12/14 05:57:29;;;;;;;23.92;11.50;;;4.30;99.90;;;;;;5024483;28;20041;-57
2023/12/14 05:59:55;;;;;;;23.15;11.00;;;4.30;99.90;;;;;;5025643;28;20056;-55
2023/12/14 06:02:21;;;;;;;21.85;11.15;;;4.30;99.90;;;;;;5025450;28;20033;-56
2023/12/14 06:04:46;;;;;;;26.15;11.18;;;4.30;99.90;;;;;;5024564;28;20157;-56
2023/12/14 06:07:15;;;;;;;20.25;10.98;;;4.30;99.90;;;;;;5008118;28;20512;-57
2023/12/14 06:09:41;;;;;;;24.25;10.82;;;4.30;99.90;;;;;;5023389;28;20114;-55
2023/12/14 06:12:07;;;;;;;22.00;10.70;;;4.30;99.90;;;;;;5006861;28;20045;-57
2023/12/14 06:14:32;;;;;;;24.05;10.60;;;4.30;99.90;;;;;;5025464;28;20041;-56
2023/12/14 06:16:58;;;;;;;21.55;10.20;;;4.30;99.90;;;;;;5033649;28;20069;-57
2023/12/14 06:19:24;;;;;;;21.35;11.30;;;4.30;99.90;;;;;;5038896;28;20728;-56
2023/12/14 06:21:50;;;;;;;20.17;11.32;;;4.30;99.90;;;;;;5031768;28;20043;-55
2023/12/14 06:24:15;;;;;;;20.35;11.70;;;4.30;99.90;;;;;;5035143;28;20136;-57
2023/12/14 06:26:45;;;;;;;21.50;10.30;;;4.30;99.90;;;;;;5026676;28;21380;-57
2023/12/14 06:29:11;;;;;;;22.48;11.27;;;4.30;99.90;;;;;;5036124;28;20224;-57
2023/12/14 06:31:38;;;;;;;25.88;11.38;;;4.30;99.90;;;;;;5035550;28;20040;-58
2023/12/14 06:34:04;;;;;;;26.83;10.77;;;4.30;99.90;;;;;;5019478;28;20039;-56
2023/12/14 06:36:30;;;;;;;22.48;11.57;;;4.40;99.90;;;;;;5034383;28;20053;-56
2023/12/14 06:38:57;;;;;;;23.80;10.95;;;4.40;99.90;;;;;;4994319;28;21437;-55
2023/12/14 06:41:24;;;;;;;18.40;10.75;;;4.30;99.90;;;;;;5002588;28;20991;-57
2023/12/14 06:43:50;;;;;;;19.77;11.05;;;4.30;99.90;;;;;;5014947;28;20045;-56
2023/12/14 06:46:16;;;;;;;19.60;10.40;;;4.30;99.90;;;;;;5024249;28;20052;-56
2023/12/14 06:48:42;;;;;;;19.33;10.38;;;4.30;99.90;;;;;;5023652;28;20429;-55
2023/12/14 06:51:08;;;;;;;30.80;11.68;;;4.30;99.90;;;;;;5024371;28;20071;-57
2023/12/14 06:53:35;;;;;;;23.95;11.50;;;4.30;99.90;;;;;;5028769;28;20837;-56
2023/12/14 06:56:00;;;;;;;26.27;11.13;;;4.30;99.90;;;;;;5029976;28;20068;-56
2023/12/14 06:58:27;;;;;;;21.20;10.50;;;4.30;99.90;;;;;;5027537;28;20055;-56
2023/12/14 07:00:53;;;;;;;22.13;11.02;;;4.30;99.90;;;;;;5028181;28;20037;-60
2023/12/14 07:03:18;;;;;;;21.52;11.43;;;4.30;99.90;;;;;;5003342;28;20586;-58
2023/12/14 07:05:44;;;;;;;21.33;11.35;;;4.30;99.90;;;;;;5006302;28;20079;-57
2023/12/14 07:08:10;;;;;;;24.35;10.88;;;4.30;99.90;;;;;;5028679;28;20049;-59
2023/12/14 07:10:35;;;;;;;20.17;11.63;;;4.30;99.90;;;;;;5028260;28;20043;-59
2023/12/14 07:13:01;;;;;;;21.63;11.05;;;4.30;99.90;;;;;;5025137;28;20052;-59
2023/12/14 07:15:27;;;;;;;24.88;11.57;;;4.30;99.90;;;;;;5021495;28;20373;-59
2023/12/14 07:17:52;;;;;;;24.27;12.68;;;4.30;99.90;;;;;;5029625;28;20457;-59
2023/12/14 07:20:18;;;;;;;22.70;10.80;;;4.30;99.90;;;;;;5027632;28;20366;-60
2023/12/14 07:22:44;;;;;;;21.58;10.75;;;4.30;99.90;;;;;;5026851;28;20064;-59
2023/12/14 07:25:09;;;;;;;22.58;11.32;;;4.30;99.90;;;;;;5013274;28;20423;-59
2023/12/14 07:27:35;;;;;;;26.20;12.00;;;4.30;99.90;;;;;;5005416;28;20481;-59
2023/12/14 07:30:01;;;;;;;25.05;11.65;;;4.30;99.90;;;;;;5006772;28;20044;-58
2023/12/14 07:32:26;;;;;;;26.25;12.10;;;4.30;99.90;;;;;;5022078;28;20076;-58
2023/12/14 07:34:52;;;;;;;25.90;12.05;;;4.30;99.90;;;;;;5024537;28;20049;-59
2023/12/14 07:37:18;;;;;;;21.00;11.07;;;4.30;99.90;;;;;;5023101;28;20149;-59
2023/12/14 07:39:44;;;;;;;22.92;11.05;;;4.30;99.90;;;;;;5029455;28;20040;-59
2023/12/14 07:42:10;;;;;;;24.92;12.13;;;4.40;99.90;;;;;;5041349;28;20630;-58
2023/12/14 07:44:37;;;;;;;26.05;12.18;;;4.30;99.90;;;;;;5006809;28;20183;-59
2023/12/14 07:47:03;;;;;;;25.77;12.77;;;4.40;99.90;;;;;;5028410;28;20082;-59
2023/12/14 07:49:29;;;;;;;26.58;12.75;;;4.30;99.90;;;;;;5000283;28;20527;-59
2023/12/14 07:51:54;;;;;;;24.65;11.68;;;4.30;99.90;;;;;;4998841;28;20045;-59
2023/12/14 07:54:21;;;;;;;21.52;12.02;;;4.30;99.90;;;;;;5032582;28;20386;-60
2023/12/14 07:56:46;;;;;;;23.60;12.75;;;4.30;99.90;;;;;;5028777;28;20044;-60
2023/12/14 07:59:13;;;;;;;26.42;13.25;;;4.30;99.90;;;;;;5028823;28;20041;-58
2023/12/14 08:01:39;;;;;;;25.55;12.55;;;4.30;99.90;;;;;;5026061;28;20607;-59
2023/12/14 08:04:05;;;;;;;27.17;12.07;;;4.30;99.90;;;;;;5027386;28;20057;-59
2023/12/14 08:06:30;;;;;;;23.33;12.25;;;4.40;99.90;;;;;;5022362;28;21527;-59
2023/12/14 08:09:00;;;;;;;23.40;12.55;;;4.30;99.90;;;;;;4992161;28;20360;-58
2023/12/14 08:11:27;;;;;;;26.15;13.02;;;4.30;99.90;;;;;;5026875;28;20437;-59
2023/12/14 08:13:52;;;;;;;26.55;13.35;;;4.40;99.90;;;;;;5007493;28;20535;-59
2023/12/14 08:16:18;;;;;;;24.65;12.82;;;4.40;99.90;;;;;;5025101;28;20045;-58
2023/12/14 08:18:48;;;;;;;25.30;12.43;;;4.40;99.90;;;;;;5024796;28;20054;-59
2023/12/14 08:21:14;;;;;;;24.65;12.35;;;4.40;99.90;;;;;;5025404;28;20156;-60
2023/12/14 08:23:40;;;;;;;24.63;13.32;;;4.40;99.90;;;;;;5014082;28;20034;-58
2023/12/14 08:26:08;;;;;;;21.85;11.93;;;4.40;99.90;;;;;;4984664;28;20463;-59
2023/12/14 08:28:34;;;;;;;26.58;12.82;;;4.40;99.90;;;;;;5000742;28;20060;-59
2023/12/14 08:31:02;;;;;;;23.58;12.38;;;4.40;99.90;;;;;;5021725;28;20053;-59
2023/12/14 08:33:28;;;;;;;20.90;12.13;;;4.40;99.90;;;;;;5020169;28;20051;-59
2023/12/14 08:35:55;;;;;;;23.10;12.30;;;4.40;99.90;;;;;;5008528;28;20046;-59
2023/12/14 08:38:21;;;;;;;23.92;12.57;;;4.50;99.90;;;;;;5020586;28;20056;-59
2023/12/14 08:40:46;;;;;;;28.85;13.73;;;4.50;99.90;;;;;;5021635;28;20576;-59
2023/12/14 08:43:12;;;;;;;27.38;13.20;;;4.50;99.90;;;;;;4984058;28;20515;-60
2023/12/14 08:45:38;;;;;;;27.05;13.45;;;4.50;99.90;;;;;;5022759;28;20053;-59
2023/12/14 08:48:05;;;;;;;24.15;13.40;;;4.50;99.90;;;;;;5020984;28;20865;-60
2023/12/14 08:50:30;;;;;;;25.52;13.65;;;4.50;99.90;;;;;;4982242;28;20933;-59
2023/12/14 08:52:58;;;;;;;22.65;12.80;;;4.50;99.90;;;;;;5021415;28;20049;-58
2023/12/14 08:55:24;;;;;;;24.30;13.05;;;4.60;99.90;;;;;;5001560;28;21018;-60
2023/12/14 08:57:50;;;;;;;25.23;12.98;;;4.60;99.90;;;;;;4999655;28;20037;-59
2023/12/14 09:00:17;;;;;;;27.13;13.48;;;4.60;99.90;;;;;;4995218;28;20124;-59
2023/12/14 09:02:45;;;;;;;25.63;13.55;;;4.60;99.90;;;;;;5030755;28;20069;-59
2023/12/14 09:05:13;;;;;;;22.48;12.65;;;4.60;99.90;;;;;;5008717;28;20067;-59
2023/12/14 09:07:39;;;;;;;25.63;12.45;;;4.70;99.90;;;;;;5028344;28;20144;-59
2023/12/14 09:10:06;;;;;;;21.45;11.85;;;4.70;99.90;;;;;;5007380;28;20055;-59
2023/12/14 09:12:34;;;;;;;22.15;12.60;;;4.70;99.90;;;;;;5028319;28;20068;-59
2023/12/14 09:15:00;;;;;;;24.63;13.15;;;4.70;99.90;;;;;;5026633;28;20918;-59
2023/12/14 09:17:26;;;;;;;24.40;13.05;;;4.70;99.90;;;;;;5026855;28;20121;-59
2023/12/14 09:19:55;;;;;;;24.83;12.75;;;4.70;99.90;;;;;;5005160;28;20131;-59
2023/12/14 09:22:20;;;;;;;27.35;12.88;;;4.70;99.90;;;;;;5012877;28;20731;-59
2023/12/14 09:24:46;;;;;;;25.83;13.70;;;4.70;99.90;;;;;;5032169;28;20049;-59
2023/12/14 09:27:12;;;;;;;24.73;13.45;;;4.70;99.90;;;;;;5022895;28;20064;-59
2023/12/14 09:29:37;;;;;;;23.70;12.63;;;4.70;99.90;;;;;;5005944;28;20053;-59
2023/12/14 09:32:04;;;;;;;25.17;12.80;;;4.80;99.90;;;;;;5024168;28;20047;-59
2023/12/14 09:34:29;;;;;;;28.67;13.27;;;4.80;99.90;;;;;;5028586;28;20494;-59
2023/12/14 09:36:55;;;;;;;25.25;13.75;;;4.80;99.90;;;;;;4995858;28;20049;-59
2023/12/14 09:39:22;;;;;;;28.45;13.75;;;4.80;99.90;;;;;;5008819;28;20045;-59
2023/12/14 09:41:49;;;;;;;28.27;13.60;;;4.80;99.90;;;;;;5024796;28;20041;-59
2023/12/14 09:44:16;;;;;;;33.63;13.43;;;4.80;99.90;;;;;;5023528;28;20263;-59
2023/12/14 09:46:48;;;;;;;27.60;13.98;;;4.80;99.90;;;;;;5021880;28;20443;-60
2023/12/14 09:49:15;;;;;;;25.95;13.30;;;4.80;99.90;;;;;;5022746;28;20045;-57
2023/12/14 09:51:41;;;;;;;24.02;13.27;;;4.80;99.90;;;;;;5006684;28;20426;-59
2023/12/14 09:54:07;;;;;;;25.23;13.65;;;4.90;99.90;;;;;;5000869;28;20484;-60
2023/12/14 09:56:33;;;;;;;29.20;13.65;;;4.90;99.90;;;;;;5021051;28;22018;-59
2023/12/14 09:59:01;;;;;;;24.25;13.52;;;4.90;99.90;;;;;;5018354;28;20045;-60
2023/12/14 10:01:27;;;;;;;26.20;14.35;;;4.90;99.90;;;;;;4994327;28;20104;-58
2023/12/14 10:04:10;;;;;;;26.70;13.10;;;4.90;99.90;;;;;;5008538;28;20052;-59
2023/12/14 10:06:36;;;;;;;27.80;13.23;;;4.90;99.90;;;;;;5024397;28;20503;-59
2023/12/14 10:09:03;;;;;;;28.15;13.05;;;4.90;99.90;;;;;;5023712;28;20072;-59
2023/12/14 10:11:29;;;;;;;26.20;12.48;;;4.90;99.90;;;;;;5021998;28;20045;-59
2023/12/14 10:13:55;;;;;;;27.40;13.35;;;4.90;99.90;;;;;;5003689;28;20122;-59
2023/12/14 10:16:32;;;;;;;25.15;13.57;;;5.00;99.90;;;;;;5022483;28;20061;-60
2023/12/14 10:18:59;;;;;;;28.20;13.98;;;5.00;99.90;;;;;;5022913;28;20041;-60
2023/12/14 10:21:26;;;;;;;26.77;14.18;;;5.00;99.90;;;;;;5020190;28;20041;-60
2023/12/14 10:23:56;;;;;;;26.38;13.55;;;5.00;99.90;;;;;;5004617;28;20049;-59
2023/12/14 10:26:24;;;;;;;31.52;13.38;;;5.00;99.90;;;;;;5006467;28;20057;-60
2023/12/14 10:28:51;;;;;;;24.83;12.38;;;5.10;99.90;;;;;;5007972;28;20059;-60
2023/12/14 10:31:19;;;;;;;26.50;13.18;;;5.10;99.90;;;;;;5034136;28;20070;-59
2023/12/14 10:33:45;;;;;;;26.38;14.02;;;5.10;99.90;;;;;;5034274;28;20429;-59
2023/12/14 10:36:13;;;;;;;26.55;13.70;;;5.10;99.90;;;;;;5027786;28;20053;-59
2023/12/14 10:38:40;;;;;;;23.38;13.13;;;5.10;99.90;;;;;;5007051;28;20115;-59
2023/12/14 10:41:07;;;;;;;25.75;13.93;;;5.10;99.90;;;;;;5011821;28;20051;-59
2023/12/14 10:43:36;;;;;;;28.77;12.85;;;5.20;99.90;;;;;;5011159;28;20045;-59
2023/12/14 10:46:09;;;;;;;27.83;14.18;;;5.20;99.90;;;;;;5012133;28;20098;-59
2023/12/14 10:48:37;;;;;;;28.17;13.40;;;5.30;99.90;;;;;;5011404;28;20041;-59
2023/12/14 10:51:04;;;;;;;25.73;13.43;;;5.30;99.90;;;;;;5017877;28;20072;-60
2023/12/14 10:53:30;;;;;;;27.58;13.60;;;5.30;99.90;;;;;;5025256;28;20119;-59
2023/12/14 10:55:59;;;;;;;28.70;13.93;;;5.40;99.90;;;;;;5027184;28;20045;-59
2023/12/14 10:58:24;;;;;;;23.52;13.40;;;5.40;99.90;;;;;;5023927;28;20044;-59
2023/12/14 11:01:02;;;;;;;26.38;13.02;;;5.40;99.90;;;;;;5024689;28;20055;-59
2023/12/14 11:03:33;;;;;;;30.83;14.00;;;5.50;99.90;;;;;;5010219;28;20127;-58
2023/12/14 11:06:00;;;;;;;25.35;14.18;;;5.50;99.90;;;;;;5023318;28;20848;-60
2023/12/14 11:08:26;;;;;;;27.63;13.95;;;5.60;99.90;;;;;;5010972;28;20052;-60
2023/12/14 11:11:10;;;;;;;24.80;14.23;;;5.60;99.90;;;;;;5020156;28;20040;-60
2023/12/14 11:13:36;;;;;;;30.25;14.70;;;5.60;99.90;;;;;;5019440;28;20136;-59
2023/12/14 11:16:01;;;;;;;28.38;14.70;;;5.60;99.90;;;;;;5018813;28;20163;-60
2023/12/14 11:18:27;;;;;;;25.98;13.90;;;5.70;99.90;;;;;;5001394;28;20079;-59
2023/12/14 11:21:01;;;;;;;25.27;13.60;;;5.60;99.90;;;;;;5000277;28;20037;-59
2023/12/14 11:23:31;;;;;;;27.83;14.82;;;5.70;99.90;;;;;;5008456;28;20052;-59
2023/12/14 11:26:11;;;;;;;25.27;14.00;;;5.70;99.90;;;;;;5023037;28;20107;-59
2023/12/14 11:28:43;;;;;;;27.60;14.95;;;5.70;99.90;;;;;;5020181;28;20367;-59
2023/12/14 11:31:13;;;;;;;24.02;13.75;;;5.80;99.90;;;;;;5002583;28;20045;-59
2023/12/14 11:33:39;;;;;;;22.13;13.65;;;5.80;99.90;;;;;;5000152;28;21083;-60
2023/12/14 11:36:05;;;;;;;23.88;13.85;;;5.90;99.90;;;;;;5019587;28;20114;-59
2023/12/14 11:38:32;;;;;;;26.30;13.48;;;5.90;99.90;;;;;;5000520;28;20125;-59
2023/12/14 11:40:59;;;;;;;20.73;12.65;;;5.90;99.90;;;;;;5020151;28;20489;-59
2023/12/14 11:43:26;;;;;;;25.45;14.15;;;5.90;99.90;;;;;;5020162;28;20055;-60
2023/12/14 11:45:52;;;;;;;21.35;12.55;;;5.90;99.90;;;;;;5027368;28;20049;-59
2023/12/14 11:48:20;;;;;;;26.23;12.43;;;6.00;99.90;;;;;;5022316;28;20037;-60
2023/12/14 11:50:46;;;;;;;21.15;12.40;;;5.90;99.90;;;;;;5027344;28;20416;-60
2023/12/14 11:53:13;;;;;;;21.65;11.73;;;5.90;99.90;;;;;;5005884;28;20075;-59
2023/12/14 11:55:41;;;;;;;22.05;12.75;;;5.90;99.90;;;;;;5030854;28;20040;-60
2023/12/14 11:58:08;;;;;;;20.63;11.82;;;6.00;99.90;;;;;;5010807;28;20049;-60
2023/12/14 12:00:37;;;;;;;20.02;11.82;;;5.90;99.90;;;;;;5022836;28;20463;-59
2023/12/14 12:03:20;;;;;;;20.08;12.18;;;5.90;99.90;;;;;;5010279;28;20036;-59
2023/12/14 12:05:49;;;;;;;21.20;11.52;;;5.90;99.90;;;;;;5026923;28;20058;-57
2023/12/14 12:08:18;;;;;;;22.10;13.20;;;5.90;99.90;;;;;;5026823;28;20044;-59
2023/12/14 12:10:45;;;;;;;24.95;13.48;;;5.90;99.90;;;;;;4998133;28;20472;-60
2023/12/14 12:13:16;;;;;;;21.25;12.55;;;5.90;99.90;;;;;;5014611;28;20830;-60
2023/12/14 12:15:43;;;;;;;22.58;12.68;;;5.90;99.90;;;;;;5002670;28;20471;-59
2023/12/14 12:18:14;;;;;;;17.92;12.02;;;6.00;99.90;;;;;;5005049;28;20045;-59
2023/12/14 12:20:40;;;;;;;20.35;12.27;;;6.00;99.90;;;;;;5020715;28;20056;-59
2023/12/14 12:23:06;;;;;;;20.92;12.57;;;6.00;99.90;;;;;;5000918;28;20110;-59
2023/12/14 12:25:33;;;;;;;19.30;12.00;;;6.00;99.90;;;;;;5001821;28;20144;-59
2023/12/14 12:28:00;;;;;;;20.92;11.60;;;6.00;99.90;;;;;;5012766;28;20177;-60
2023/12/14 12:30:25;;;;;;;22.38;12.43;;;6.00;99.90;;;;;;5001203;28;20037;-60
2023/12/14 12:32:51;;;;;;;17.73;11.90;;;6.00;99.90;;;;;;4989158;28;20045;-60
2023/12/14 12:35:20;;;;;;;20.88;11.68;;;6.00;99.90;;;;;;4998984;28;20724;-59
2023/12/14 12:37:46;;;;;;;22.67;12.80;;;6.00;99.90;;;;;;5017259;28;20037;-59